AIQ1042 VTBD-VLVT
Flight info
| Callsign | AIQ1042 |
|---|---|
| Flight time | 0h 55m |
| Altitude | 31000 |
| Route | NOBER4C NOBER W21 CMP R474 VTN |
| Aircraft | A320/M-SDE3FGHIRWY/LB1 |
Departure
| Time | 2026-04-27 23:42 |
|---|---|
| Airport | Don Mueang International Airport (VTBD) |
Arrival
| Time | 2026-04-28 00:37 |
|---|---|
| Airport | Wattay International Airport (VLVT) |
| Time | Latitude | Longitude | Altitude | Speed | Heading |
|---|---|---|---|---|---|
| 2026-04-27 23:27 | 13.92323 | 100.60714 | 19 ft | 0 kts | 118° |
| 2026-04-27 23:34 | 13.92330 | 100.60699 | 20 ft | 4 kts | 114° |
| 2026-04-27 23:35 | 13.92339 | 100.60673 | 18 ft | 4 kts | 99° |
| 2026-04-27 23:35 | 13.92339 | 100.60648 | 17 ft | 4 kts | 60° |
| 2026-04-27 23:35 | 13.92329 | 100.60637 | 21 ft | 1 kts | 28° |
| 2026-04-27 23:35 | 13.92327 | 100.60636 | 21 ft | 0 kts | 28° |
| 2026-04-27 23:37 | 13.92346 | 100.60646 | 20 ft | 10 kts | 28° |
| 2026-04-27 23:38 | 13.92436 | 100.60696 | 17 ft | 15 kts | 28° |
| 2026-04-27 23:38 | 13.92524 | 100.60746 | 17 ft | 14 kts | 29° |
| 2026-04-27 23:38 | 13.92603 | 100.60791 | 17 ft | 12 kts | 28° |
| 2026-04-27 23:38 | 13.92673 | 100.60830 | 17 ft | 11 kts | 28° |
| 2026-04-27 23:39 | 13.92733 | 100.60865 | 17 ft | 9 kts | 35° |
| 2026-04-27 23:39 | 13.92745 | 100.60916 | 17 ft | 7 kts | 114° |
| 2026-04-27 23:39 | 13.92723 | 100.60956 | 18 ft | 6 kts | 119° |
| 2026-04-27 23:39 | 13.92698 | 100.61003 | 18 ft | 9 kts | 118° |
| 2026-04-27 23:40 | 13.92670 | 100.61056 | 19 ft | 8 kts | 118° |
| 2026-04-27 23:40 | 13.92645 | 100.61102 | 20 ft | 7 kts | 119° |
| 2026-04-27 23:40 | 13.92604 | 100.61179 | 16 ft | 15 kts | 119° |
| 2026-04-27 23:40 | 13.92542 | 100.61189 | 18 ft | 11 kts | 210° |
| 2026-04-27 23:41 | 13.92404 | 100.61111 | 18 ft | 51 kts | 209° |
| 2026-04-27 23:41 | 13.91890 | 100.60821 | 18 ft | 115 kts | 209° |
| 2026-04-27 23:41 | 13.91019 | 100.60335 | 21 ft | 165 kts | 209° |
| 2026-04-27 23:41 | 13.90006 | 100.59758 | 578 ft | 167 kts | 208° |
| 2026-04-27 23:42 | 13.88995 | 100.59180 | 1278 ft | 165 kts | 207° |
| 2026-04-27 23:42 | 13.87992 | 100.58582 | 1829 ft | 174 kts | 217° |
| 2026-04-27 23:42 | 13.87386 | 100.57421 | 2051 ft | 204 kts | 263° |
| 2026-04-27 23:42 | 13.87653 | 100.55897 | 2332 ft | 230 kts | 286° |
| 2026-04-27 23:43 | 13.88294 | 100.54326 | 2825 ft | 242 kts | 292° |
| 2026-04-27 23:43 | 13.89038 | 100.52726 | 3348 ft | 259 kts | 293° |
| 2026-04-27 23:43 | 13.89825 | 100.51028 | 4021 ft | 267 kts | 292° |
| 2026-04-27 23:43 | 13.90610 | 100.49270 | 4811 ft | 271 kts | 292° |
| 2026-04-27 23:44 | 13.91377 | 100.47481 | 5615 ft | 274 kts | 291° |
| 2026-04-27 23:44 | 13.92131 | 100.45662 | 6420 ft | 277 kts | 291° |
| 2026-04-27 23:44 | 13.92884 | 100.43808 | 6847 ft | 281 kts | 291° |
| 2026-04-27 23:44 | 13.93630 | 100.41943 | 6990 ft | 281 kts | 291° |
| 2026-04-27 23:45 | 13.94368 | 100.40088 | 7474 ft | 285 kts | 291° |
| 2026-04-27 23:45 | 13.95123 | 100.38185 | 7886 ft | 286 kts | 291° |
| 2026-04-27 23:45 | 13.95878 | 100.36288 | 7999 ft | 286 kts | 293° |
| 2026-04-27 23:45 | 13.96939 | 100.34569 | 8017 ft | 286 kts | 311° |
| 2026-04-27 23:46 | 13.98499 | 100.33293 | 8042 ft | 290 kts | 331° |
| 2026-04-27 23:46 | 14.00430 | 100.32634 | 8721 ft | 295 kts | 350° |
| 2026-04-27 23:46 | 14.02471 | 100.32377 | 9572 ft | 296 kts | 352° |
| 2026-04-27 23:46 | 14.04534 | 100.32132 | 10265 ft | 301 kts | 352° |
| 2026-04-27 23:47 | 14.06695 | 100.31875 | 10453 ft | 325 kts | 352° |
| 2026-04-27 23:47 | 14.08989 | 100.31601 | 10675 ft | 344 kts | 352° |
| 2026-04-27 23:47 | 14.11404 | 100.31316 | 11205 ft | 351 kts | 352° |
| 2026-04-27 23:47 | 14.13860 | 100.31030 | 11842 ft | 355 kts | 352° |
| 2026-04-27 23:48 | 14.16329 | 100.30743 | 12385 ft | 353 kts | 353° |
| 2026-04-27 23:48 | 14.18712 | 100.30467 | 12479 ft | 351 kts | 352° |
| 2026-04-27 23:48 | 14.21182 | 100.30177 | 12804 ft | 361 kts | 353° |
| 2026-04-27 23:48 | 14.23689 | 100.29882 | 12863 ft | 362 kts | 353° |
| 2026-04-27 23:49 | 14.26198 | 100.29590 | 12865 ft | 362 kts | 353° |
| 2026-04-27 23:49 | 14.28704 | 100.29298 | 12866 ft | 362 kts | 352° |
| 2026-04-27 23:49 | 14.31215 | 100.29005 | 12865 ft | 362 kts | 352° |
| 2026-04-27 23:49 | 14.33691 | 100.28715 | 12899 ft | 364 kts | 352° |
| 2026-04-27 23:50 | 14.36227 | 100.28417 | 13517 ft | 367 kts | 352° |
| 2026-04-27 23:50 | 14.38774 | 100.28118 | 14098 ft | 370 kts | 352° |
| 2026-04-27 23:50 | 14.41347 | 100.27817 | 14676 ft | 372 kts | 352° |
| 2026-04-27 23:50 | 14.43934 | 100.27515 | 15245 ft | 374 kts | 352° |
| 2026-04-27 23:51 | 14.46539 | 100.27360 | 15810 ft | 378 kts | 1° |
| 2026-04-27 23:51 | 14.49130 | 100.27709 | 16359 ft | 382 kts | 12° |
| 2026-04-27 23:51 | 14.51714 | 100.28429 | 16907 ft | 384 kts | 13° |
| 2026-04-27 23:51 | 14.54301 | 100.29160 | 17464 ft | 386 kts | 13° |
| 2026-04-27 23:52 | 14.56902 | 100.29891 | 17996 ft | 389 kts | 13° |
| 2026-04-27 23:52 | 14.59526 | 100.30627 | 18472 ft | 391 kts | 13° |
| 2026-04-27 23:52 | 14.62163 | 100.31367 | 18915 ft | 394 kts | 13° |
| 2026-04-27 23:52 | 14.64822 | 100.32112 | 19356 ft | 397 kts | 13° |
| 2026-04-27 23:53 | 14.67502 | 100.32866 | 19799 ft | 400 kts | 13° |
| 2026-04-27 23:53 | 14.70156 | 100.33652 | 20236 ft | 404 kts | 17° |
| 2026-04-27 23:53 | 14.72738 | 100.34854 | 20684 ft | 410 kts | 26° |
| 2026-04-27 23:53 | 14.75236 | 100.36305 | 21127 ft | 413 kts | 26° |
| 2026-04-27 23:54 | 14.77754 | 100.37770 | 21566 ft | 416 kts | 26° |
| 2026-04-27 23:54 | 14.80290 | 100.39243 | 21998 ft | 419 kts | 26° |
| 2026-04-27 23:54 | 14.82849 | 100.40731 | 22416 ft | 422 kts | 26° |
| 2026-04-27 23:54 | 14.85417 | 100.42226 | 22825 ft | 425 kts | 26° |
| 2026-04-27 23:55 | 14.88013 | 100.43734 | 23215 ft | 429 kts | 26° |
| 2026-04-27 23:55 | 14.90624 | 100.45246 | 23573 ft | 431 kts | 26° |
| 2026-04-27 23:55 | 14.93220 | 100.46755 | 23900 ft | 434 kts | 26° |
| 2026-04-27 23:55 | 14.95865 | 100.48297 | 24229 ft | 436 kts | 26° |
| 2026-04-27 23:56 | 14.98524 | 100.49844 | 24557 ft | 438 kts | 26° |
| 2026-04-27 23:56 | 15.01170 | 100.51384 | 24871 ft | 441 kts | 26° |
| 2026-04-27 23:56 | 15.03853 | 100.52948 | 25186 ft | 443 kts | 26° |
| 2026-04-27 23:56 | 15.06539 | 100.54517 | 25491 ft | 445 kts | 26° |
| 2026-04-27 23:57 | 15.09245 | 100.56095 | 25793 ft | 447 kts | 26° |
| 2026-04-27 23:57 | 15.11981 | 100.57691 | 26087 ft | 449 kts | 26° |
| 2026-04-27 23:57 | 15.14620 | 100.59227 | 26361 ft | 451 kts | 26° |
| 2026-04-27 23:57 | 15.17417 | 100.60857 | 26648 ft | 453 kts | 26° |
| 2026-04-27 23:58 | 15.20181 | 100.62469 | 26935 ft | 456 kts | 26° |
| 2026-04-27 23:58 | 15.22019 | 100.63540 | 27121 ft | 457 kts | 26° |
| 2026-04-27 23:58 | 15.24798 | 100.65159 | 27401 ft | 459 kts | 26° |
| 2026-04-27 23:58 | 15.27520 | 100.66903 | 27667 ft | 464 kts | 33° |
| 2026-04-27 23:59 | 15.30769 | 100.69830 | 28014 ft | 469 kts | 40° |
| 2026-04-27 23:59 | 15.32385 | 100.71398 | 28187 ft | 470 kts | 40° |
| 2026-04-27 23:59 | 15.35566 | 100.74471 | 28520 ft | 473 kts | 40° |
| 2026-04-27 23:59 | 15.37166 | 100.76011 | 28690 ft | 474 kts | 40° |
| 2026-04-28 00:00 | 15.40428 | 100.79141 | 28995 ft | 478 kts | 40° |
| 2026-04-28 00:00 | 15.42048 | 100.80698 | 29142 ft | 479 kts | 40° |
| 2026-04-28 00:00 | 15.44494 | 100.83054 | 29370 ft | 481 kts | 40° |
| 2026-04-28 00:00 | 15.46957 | 100.85426 | 29578 ft | 483 kts | 40° |
| 2026-04-28 00:01 | 15.49423 | 100.87802 | 29823 ft | 485 kts | 40° |
| 2026-04-28 00:01 | 15.51869 | 100.90163 | 30009 ft | 487 kts | 40° |
| 2026-04-28 00:01 | 15.54352 | 100.92560 | 30196 ft | 488 kts | 40° |
| 2026-04-28 00:01 | 15.56839 | 100.94968 | 30384 ft | 489 kts | 40° |
| 2026-04-28 00:02 | 15.59332 | 100.97384 | 30565 ft | 490 kts | 40° |
| 2026-04-28 00:02 | 15.61838 | 100.99809 | 30772 ft | 490 kts | 40° |
| 2026-04-28 00:02 | 15.66768 | 101.04588 | 30876 ft | 475 kts | 40° |
| 2026-04-28 00:03 | 15.71542 | 101.09211 | 30893 ft | 470 kts | 40° |
| 2026-04-28 00:03 | 15.76352 | 101.13862 | 30881 ft | 471 kts | 40° |
| 2026-04-28 00:04 | 15.83527 | 101.20809 | 30881 ft | 472 kts | 40° |
| 2026-04-28 00:05 | 15.88323 | 101.25480 | 30883 ft | 472 kts | 40° |
| 2026-04-28 00:05 | 15.93128 | 101.30153 | 30884 ft | 471 kts | 40° |
| 2026-04-28 00:06 | 15.97890 | 101.34771 | 30884 ft | 471 kts | 40° |
| 2026-04-28 00:06 | 16.02676 | 101.39418 | 30888 ft | 471 kts | 40° |
| 2026-04-28 00:07 | 16.07465 | 101.44080 | 30897 ft | 471 kts | 40° |
| 2026-04-28 00:07 | 16.12219 | 101.48718 | 30890 ft | 471 kts | 40° |
| 2026-04-28 00:08 | 16.17009 | 101.53388 | 30883 ft | 471 kts | 40° |
| 2026-04-28 00:08 | 16.21800 | 101.58059 | 30893 ft | 471 kts | 40° |
| 2026-04-28 00:09 | 16.26561 | 101.62700 | 30896 ft | 471 kts | 40° |
| 2026-04-28 00:09 | 16.31358 | 101.67379 | 30902 ft | 471 kts | 40° |
| 2026-04-28 00:10 | 16.36144 | 101.72055 | 30901 ft | 471 kts | 40° |
| 2026-04-28 00:10 | 16.40923 | 101.76731 | 30893 ft | 471 kts | 40° |
| 2026-04-28 00:11 | 16.45719 | 101.81421 | 30893 ft | 472 kts | 40° |
| 2026-04-28 00:11 | 16.50507 | 101.86112 | 30891 ft | 473 kts | 40° |
| 2026-04-28 00:12 | 16.55282 | 101.90795 | 30875 ft | 473 kts | 40° |
| 2026-04-28 00:12 | 16.60085 | 101.95512 | 30877 ft | 473 kts | 40° |
| 2026-04-28 00:13 | 16.65366 | 101.99493 | 30878 ft | 465 kts | 22° |
| 2026-04-28 00:13 | 16.71305 | 102.01972 | 30884 ft | 462 kts | 16° |
| 2026-04-28 00:14 | 16.77337 | 102.04364 | 30868 ft | 463 kts | 17° |
| 2026-04-28 00:14 | 16.83361 | 102.06779 | 30875 ft | 464 kts | 17° |
| 2026-04-28 00:14 | 16.86385 | 102.07990 | 30670 ft | 464 kts | 17° |
| 2026-04-28 00:15 | 16.89396 | 102.09190 | 30099 ft | 462 kts | 17° |
| 2026-04-28 00:15 | 16.92362 | 102.10369 | 29428 ft | 460 kts | 17° |
| 2026-04-28 00:15 | 16.95340 | 102.11556 | 28827 ft | 456 kts | 17° |
| 2026-04-28 00:15 | 16.98296 | 102.12738 | 28224 ft | 453 kts | 17° |
| 2026-04-28 00:16 | 17.01243 | 102.13917 | 27624 ft | 449 kts | 17° |
| 2026-04-28 00:16 | 17.04126 | 102.15070 | 27051 ft | 446 kts | 17° |
| 2026-04-28 00:16 | 17.07059 | 102.16242 | 26451 ft | 444 kts | 17° |
| 2026-04-28 00:16 | 17.09902 | 102.17379 | 25889 ft | 441 kts | 17° |
| 2026-04-28 00:17 | 17.12759 | 102.18521 | 25326 ft | 438 kts | 17° |
| 2026-04-28 00:17 | 17.15604 | 102.19658 | 24784 ft | 435 kts | 17° |
| 2026-04-28 00:17 | 17.18427 | 102.20784 | 24252 ft | 432 kts | 17° |
| 2026-04-28 00:17 | 17.21224 | 102.21903 | 23734 ft | 429 kts | 17° |
| 2026-04-28 00:18 | 17.24011 | 102.23020 | 23172 ft | 426 kts | 17° |
| 2026-04-28 00:18 | 17.26727 | 102.24108 | 22672 ft | 421 kts | 17° |
| 2026-04-28 00:18 | 17.29452 | 102.25198 | 22179 ft | 417 kts | 17° |
| 2026-04-28 00:18 | 17.32152 | 102.26280 | 21682 ft | 414 kts | 17° |
| 2026-04-28 00:19 | 17.34832 | 102.27356 | 21193 ft | 411 kts | 17° |
| 2026-04-28 00:19 | 17.37508 | 102.28430 | 20684 ft | 409 kts | 17° |
| 2026-04-28 00:19 | 17.40162 | 102.29496 | 20169 ft | 407 kts | 17° |
| 2026-04-28 00:19 | 17.42770 | 102.30543 | 19658 ft | 406 kts | 18° |
| 2026-04-28 00:20 | 17.45403 | 102.31598 | 19144 ft | 404 kts | 18° |
| 2026-04-28 00:20 | 17.48029 | 102.32650 | 18617 ft | 404 kts | 18° |
| 2026-04-28 00:20 | 17.50657 | 102.33702 | 18083 ft | 403 kts | 18° |
| 2026-04-28 00:20 | 17.53287 | 102.34758 | 17520 ft | 402 kts | 18° |
| 2026-04-28 00:21 | 17.55881 | 102.35801 | 17057 ft | 397 kts | 18° |
| 2026-04-28 00:21 | 17.58465 | 102.36841 | 16514 ft | 395 kts | 18° |
| 2026-04-28 00:21 | 17.60991 | 102.37858 | 16016 ft | 393 kts | 18° |
| 2026-04-28 00:21 | 17.63530 | 102.38877 | 15569 ft | 389 kts | 18° |
| 2026-04-28 00:22 | 17.66053 | 102.39891 | 15145 ft | 385 kts | 18° |
| 2026-04-28 00:22 | 17.68551 | 102.40895 | 14642 ft | 383 kts | 18° |
| 2026-04-28 00:22 | 17.71023 | 102.41889 | 14216 ft | 377 kts | 18° |
| 2026-04-28 00:22 | 17.73441 | 102.42862 | 13557 ft | 375 kts | 18° |
| 2026-04-28 00:23 | 17.75859 | 102.43833 | 13017 ft | 366 kts | 18° |
| 2026-04-28 00:23 | 17.78206 | 102.44779 | 12538 ft | 356 kts | 18° |
| 2026-04-28 00:23 | 17.80497 | 102.45706 | 12078 ft | 350 kts | 18° |
| 2026-04-28 00:23 | 17.82774 | 102.46625 | 11590 ft | 349 kts | 18° |
| 2026-04-28 00:24 | 17.85039 | 102.47536 | 11118 ft | 347 kts | 18° |
| 2026-04-28 00:24 | 17.87265 | 102.48438 | 10652 ft | 346 kts | 19° |
| 2026-04-28 00:24 | 17.89501 | 102.49349 | 10294 ft | 341 kts | 19° |
| 2026-04-28 00:24 | 17.91673 | 102.50235 | 10189 ft | 329 kts | 19° |
| 2026-04-28 00:25 | 17.93775 | 102.51093 | 10073 ft | 318 kts | 19° |
| 2026-04-28 00:25 | 17.95783 | 102.51912 | 9937 ft | 309 kts | 19° |
| 2026-04-28 00:25 | 17.97792 | 102.52729 | 9458 ft | 311 kts | 19° |
| 2026-04-28 00:25 | 17.99820 | 102.53461 | 9176 ft | 303 kts | 10° |
| 2026-04-28 00:26 | 18.01864 | 102.53656 | 8779 ft | 295 kts | 354° |
| 2026-04-28 00:26 | 18.03870 | 102.53293 | 8234 ft | 290 kts | 343° |
| 2026-04-28 00:26 | 18.05824 | 102.52758 | 7567 ft | 287 kts | 343° |
| 2026-04-28 00:26 | 18.07736 | 102.52240 | 6899 ft | 286 kts | 343° |
| 2026-04-28 00:27 | 18.09661 | 102.51720 | 6241 ft | 285 kts | 344° |
| 2026-04-28 00:27 | 18.11579 | 102.51202 | 5585 ft | 282 kts | 344° |
| 2026-04-28 00:27 | 18.13470 | 102.50693 | 5142 ft | 277 kts | 342° |
| 2026-04-28 00:27 | 18.15163 | 102.50235 | 4981 ft | 275 kts | 345° |
| 2026-04-28 00:28 | 18.16980 | 102.49742 | 4701 ft | 265 kts | 345° |
| 2026-04-28 00:28 | 18.18691 | 102.49280 | 4612 ft | 242 kts | 344° |
| 2026-04-28 00:28 | 18.20180 | 102.48631 | 4557 ft | 227 kts | 326° |
| 2026-04-28 00:28 | 18.21342 | 102.47584 | 4498 ft | 212 kts | 308° |
| 2026-04-28 00:29 | 18.22121 | 102.46284 | 4460 ft | 208 kts | 291° |
| 2026-04-28 00:29 | 18.22500 | 102.44844 | 4421 ft | 206 kts | 274° |
| 2026-04-28 00:29 | 18.22468 | 102.43345 | 4374 ft | 204 kts | 258° |
| 2026-04-28 00:29 | 18.22038 | 102.41932 | 4326 ft | 203 kts | 242° |
| 2026-04-28 00:30 | 18.21258 | 102.40704 | 4281 ft | 202 kts | 226° |
| 2026-04-28 00:30 | 18.20180 | 102.39757 | 4238 ft | 202 kts | 211° |
| 2026-04-28 00:30 | 18.18897 | 102.39167 | 4195 ft | 202 kts | 195° |
| 2026-04-28 00:30 | 18.17506 | 102.38972 | 4146 ft | 203 kts | 180° |
| 2026-04-28 00:31 | 18.16124 | 102.39191 | 4109 ft | 205 kts | 164° |
| 2026-04-28 00:31 | 18.14830 | 102.39825 | 4062 ft | 206 kts | 147° |
| 2026-04-28 00:31 | 18.13748 | 102.40817 | 4024 ft | 207 kts | 135° |
| 2026-04-28 00:31 | 18.12751 | 102.41885 | 3977 ft | 205 kts | 136° |
| 2026-04-28 00:32 | 18.11727 | 102.42951 | 3719 ft | 207 kts | 136° |
| 2026-04-28 00:32 | 18.10714 | 102.43999 | 3480 ft | 202 kts | 137° |
| 2026-04-28 00:32 | 18.09724 | 102.45025 | 3207 ft | 197 kts | 137° |
| 2026-04-28 00:32 | 18.08773 | 102.46012 | 2958 ft | 191 kts | 136° |
| 2026-04-28 00:33 | 18.07831 | 102.46990 | 2712 ft | 187 kts | 136° |
| 2026-04-28 00:33 | 18.06932 | 102.47923 | 2469 ft | 176 kts | 135° |
| 2026-04-28 00:33 | 18.06101 | 102.48786 | 2279 ft | 159 kts | 135° |
| 2026-04-28 00:33 | 18.05343 | 102.49572 | 2066 ft | 148 kts | 135° |
| 2026-04-28 00:34 | 18.04629 | 102.50313 | 1880 ft | 144 kts | 136° |
| 2026-04-28 00:34 | 18.03921 | 102.51047 | 1690 ft | 141 kts | 136° |
| 2026-04-28 00:34 | 18.03222 | 102.51772 | 1511 ft | 141 kts | 135° |
| 2026-04-28 00:34 | 18.02935 | 102.52070 | 1445 ft | 142 kts | 135° |
| 2026-04-28 00:35 | 18.02689 | 102.52324 | 1412 ft | 137 kts | 134° |
| 2026-04-28 00:35 | 18.02032 | 102.53006 | 1205 ft | 130 kts | 134° |
| 2026-04-28 00:35 | 18.01326 | 102.53737 | 1080 ft | 146 kts | 134° |
| 2026-04-28 00:36 | 18.00595 | 102.54509 | 877 ft | 149 kts | 133° |
| 2026-04-28 00:36 | 17.99859 | 102.55267 | 628 ft | 149 kts | 134° |
| 2026-04-28 00:36 | 17.99176 | 102.55974 | 567 ft | 117 kts | 136° |
| 2026-04-28 00:36 | 17.98715 | 102.56445 | 568 ft | 67 kts | 136° |
| 2026-04-28 00:37 | 17.98487 | 102.56679 | 571 ft | 37 kts | 136° |
| 2026-04-28 00:37 | 17.98303 | 102.56862 | 565 ft | 28 kts | 141° |
| 2026-04-28 00:37 | 17.98191 | 102.56885 | 563 ft | 17 kts | 162° |
| 2026-04-28 00:37 | 17.98073 | 102.56920 | 567 ft | 18 kts | 164° |
| 2026-04-28 00:38 | 17.97945 | 102.56959 | 565 ft | 20 kts | 167° |
| 2026-04-28 00:38 | 17.97838 | 102.56983 | 565 ft | 10 kts | 171° |
| 2026-04-28 00:38 | 17.97773 | 102.56966 | 564 ft | 9 kts | 222° |
| 2026-04-28 00:38 | 17.97728 | 102.56917 | 567 ft | 9 kts | 244° |
| 2026-04-28 00:39 | 17.97719 | 102.56869 | 569 ft | 5 kts | 220° |
| 2026-04-28 00:39 | 17.97691 | 102.56846 | 567 ft | 5 kts | 226° |
| 2026-04-28 00:39 | 17.97677 | 102.56830 | 563 ft | 2 kts | 225° |
| 2026-04-28 00:39 | 17.97676 | 102.56829 | 565 ft | 0 kts | 225° |